sensor_id;sensor_type;location;lat;lon;timestamp;P1;durP1;ratioP1;P2;durP2;ratioP2
49376;SDS011;35253;34.688;33.040;2022-07-29T00:00:44;14.23;;;9.57;;
49376;SDS011;35253;34.688;33.040;2022-07-29T00:03:10;12.32;;;5.63;;
49376;SDS011;35253;34.688;33.040;2022-07-29T00:05:42;6.15;;;4.38;;
49376;SDS011;35253;34.688;33.040;2022-07-29T00:08:08;8.35;;;4.88;;
49376;SDS011;35253;34.688;33.040;2022-07-29T00:10:34;9.40;;;4.82;;
49376;SDS011;35253;34.688;33.040;2022-07-29T00:13:00;6.05;;;4.53;;
49376;SDS011;35253;34.688;33.040;2022-07-29T00:15:26;4.53;;;4.05;;
49376;SDS011;35253;34.688;33.040;2022-07-29T00:17:52;5.22;;;4.38;;
49376;SDS011;35253;34.688;33.040;2022-07-29T00:20:18;9.77;;;5.30;;
49376;SDS011;35253;34.688;33.040;2022-07-29T00:22:44;3.78;;;3.38;;
49376;SDS011;35253;34.688;33.040;2022-07-29T00:25:11;6.85;;;4.25;;
49376;SDS011;35253;34.688;33.040;2022-07-29T00:27:38;4.57;;;4.05;;
49376;SDS011;35253;34.688;33.040;2022-07-29T00:30:04;5.30;;;4.13;;
49376;SDS011;35253;34.688;33.040;2022-07-29T00:32:30;9.43;;;4.13;;
49376;SDS011;35253;34.688;33.040;2022-07-29T00:34:56;6.65;;;4.25;;
49376;SDS011;35253;34.688;33.040;2022-07-29T00:37:40;8.20;;;3.60;;
49376;SDS011;35253;34.688;33.040;2022-07-29T00:40:06;4.30;;;3.72;;
49376;SDS011;35253;34.688;33.040;2022-07-29T00:42:42;7.10;;;4.82;;
49376;SDS011;35253;34.688;33.040;2022-07-29T00:45:12;6.53;;;3.67;;
49376;SDS011;35253;34.688;33.040;2022-07-29T00:47:38;4.68;;;4.13;;
49376;SDS011;35253;34.688;33.040;2022-07-29T00:50:05;9.73;;;4.63;;
49376;SDS011;35253;34.688;33.040;2022-07-29T00:52:32;10.40;;;3.95;;
49376;SDS011;35253;34.688;33.040;2022-07-29T00:54:59;6.45;;;3.80;;
49376;SDS011;35253;34.688;33.040;2022-07-29T00:57:24;7.28;;;3.78;;
49376;SDS011;35253;34.688;33.040;2022-07-29T00:59:50;7.28;;;4.40;;
49376;SDS011;35253;34.688;33.040;2022-07-29T01:02:16;5.43;;;3.78;;
49376;SDS011;35253;34.688;33.040;2022-07-29T01:04:41;5.78;;;3.50;;
49376;SDS011;35253;34.688;33.040;2022-07-29T01:07:07;8.10;;;3.83;;
49376;SDS011;35253;34.688;33.040;2022-07-29T01:09:33;10.50;;;5.00;;
49376;SDS011;35253;34.688;33.040;2022-07-29T01:12:01;4.53;;;3.80;;
49376;SDS011;35253;34.688;33.040;2022-07-29T01:14:27;6.72;;;3.83;;
49376;SDS011;35253;34.688;33.040;2022-07-29T01:16:54;11.68;;;4.15;;
49376;SDS011;35253;34.688;33.040;2022-07-29T01:22:29;5.43;;;4.25;;
49376;SDS011;35253;34.688;33.040;2022-07-29T01:25:10;6.53;;;4.25;;
49376;SDS011;35253;34.688;33.040;2022-07-29T01:27:50;5.35;;;4.32;;
49376;SDS011;35253;34.688;33.040;2022-07-29T01:30:22;4.65;;;3.92;;
49376;SDS011;35253;34.688;33.040;2022-07-29T01:32:50;7.28;;;4.13;;
49376;SDS011;35253;34.688;33.040;2022-07-29T01:35:35;8.52;;;4.57;;
49376;SDS011;35253;34.688;33.040;2022-07-29T01:38:12;12.85;;;4.72;;
49376;SDS011;35253;34.688;33.040;2022-07-29T01:43:14;7.72;;;3.78;;
49376;SDS011;35253;34.688;33.040;2022-07-29T01:45:53;5.40;;;3.65;;
49376;SDS011;35253;34.688;33.040;2022-07-29T01:48:34;7.82;;;4.00;;
49376;SDS011;35253;34.688;33.040;2022-07-29T01:51:05;8.17;;;4.07;;
49376;SDS011;35253;34.688;33.040;2022-07-29T01:53:45;17.02;;;4.35;;
49376;SDS011;35253;34.688;33.040;2022-07-29T01:56:20;10.35;;;5.32;;
49376;SDS011;35253;34.688;33.040;2022-07-29T01:58:48;6.07;;;4.07;;
49376;SDS011;35253;34.688;33.040;2022-07-29T02:01:17;8.70;;;4.75;;
49376;SDS011;35253;34.688;33.040;2022-07-29T02:03:44;6.60;;;3.63;;
49376;SDS011;35253;34.688;33.040;2022-07-29T02:06:11;6.22;;;3.65;;
49376;SDS011;35253;34.688;33.040;2022-07-29T02:08:40;8.55;;;4.55;;
49376;SDS011;35253;34.688;33.040;2022-07-29T02:11:06;6.78;;;3.63;;
49376;SDS011;35253;34.688;33.040;2022-07-29T02:13:34;6.72;;;4.75;;
49376;SDS011;35253;34.688;33.040;2022-07-29T02:16:02;4.97;;;4.05;;
49376;SDS011;35253;34.688;33.040;2022-07-29T02:18:32;6.43;;;3.40;;
49376;SDS011;35253;34.688;33.040;2022-07-29T02:21:01;9.27;;;4.40;;
49376;SDS011;35253;34.688;33.040;2022-07-29T02:23:28;9.10;;;4.53;;
49376;SDS011;35253;34.688;33.040;2022-07-29T02:25:57;9.40;;;5.00;;
49376;SDS011;35253;34.688;33.040;2022-07-29T02:28:28;7.25;;;4.20;;
49376;SDS011;35253;34.688;33.040;2022-07-29T02:30:56;5.68;;;4.20;;
49376;SDS011;35253;34.688;33.040;2022-07-29T02:33:25;6.60;;;4.07;;
49376;SDS011;35253;34.688;33.040;2022-07-29T02:35:52;7.70;;;4.00;;
49376;SDS011;35253;34.688;33.040;2022-07-29T02:38:20;8.95;;;4.15;;
49376;SDS011;35253;34.688;33.040;2022-07-29T02:41:10;14.02;;;4.78;;
49376;SDS011;35253;34.688;33.040;2022-07-29T02:43:39;13.40;;;5.00;;
49376;SDS011;35253;34.688;33.040;2022-07-29T02:46:08;6.50;;;3.47;;
49376;SDS011;35253;34.688;33.040;2022-07-29T02:48:44;4.68;;;3.70;;
49376;SDS011;35253;34.688;33.040;2022-07-29T02:51:23;9.10;;;4.40;;
49376;SDS011;35253;34.688;33.040;2022-07-29T02:53:53;8.05;;;6.28;;
49376;SDS011;35253;34.688;33.040;2022-07-29T02:56:23;6.55;;;4.05;;
49376;SDS011;35253;34.688;33.040;2022-07-29T03:01:24;5.72;;;4.28;;
49376;SDS011;35253;34.688;33.040;2022-07-29T03:03:54;7.38;;;3.97;;
49376;SDS011;35253;34.688;33.040;2022-07-29T03:06:21;12.73;;;4.57;;
49376;SDS011;35253;34.688;33.040;2022-07-29T03:08:50;8.38;;;4.90;;
49376;SDS011;35253;34.688;33.040;2022-07-29T03:11:16;7.25;;;4.60;;
49376;SDS011;35253;34.688;33.040;2022-07-29T03:13:43;5.25;;;3.70;;
49376;SDS011;35253;34.688;33.040;2022-07-29T03:16:10;11.30;;;4.93;;
49376;SDS011;35253;34.688;33.040;2022-07-29T03:18:38;8.65;;;4.50;;
49376;SDS011;35253;34.688;33.040;2022-07-29T03:21:04;7.00;;;4.75;;
49376;SDS011;35253;34.688;33.040;2022-07-29T03:23:30;6.75;;;4.07;;
49376;SDS011;35253;34.688;33.040;2022-07-29T03:25:56;4.60;;;4.20;;
49376;SDS011;35253;34.688;33.040;2022-07-29T03:28:22;8.63;;;3.92;;
49376;SDS011;35253;34.688;33.040;2022-07-29T03:30:49;6.18;;;3.90;;
49376;SDS011;35253;34.688;33.040;2022-07-29T03:33:15;8.00;;;4.53;;
49376;SDS011;35253;34.688;33.040;2022-07-29T03:35:41;5.82;;;3.28;;
49376;SDS011;35253;34.688;33.040;2022-07-29T03:38:07;3.85;;;3.38;;
49376;SDS011;35253;34.688;33.040;2022-07-29T03:43:19;7.95;;;4.65;;
49376;SDS011;35253;34.688;33.040;2022-07-29T03:45:47;9.93;;;4.25;;
49376;SDS011;35253;34.688;33.040;2022-07-29T03:48:19;8.45;;;3.65;;
49376;SDS011;35253;34.688;33.040;2022-07-29T03:50:47;9.32;;;4.75;;
49376;SDS011;35253;34.688;33.040;2022-07-29T03:53:15;7.30;;;4.70;;
49376;SDS011;35253;34.688;33.040;2022-07-29T03:55:43;6.15;;;4.03;;
49376;SDS011;35253;34.688;33.040;2022-07-29T03:58:12;8.55;;;3.78;;
49376;SDS011;35253;34.688;33.040;2022-07-29T04:00:39;10.18;;;3.85;;
49376;SDS011;35253;34.688;33.040;2022-07-29T04:03:07;8.48;;;4.50;;
49376;SDS011;35253;34.688;33.040;2022-07-29T04:05:34;8.57;;;3.35;;
49376;SDS011;35253;34.688;33.040;2022-07-29T04:08:00;8.85;;;3.50;;
49376;SDS011;35253;34.688;33.040;2022-07-29T04:10:26;16.70;;;3.80;;
49376;SDS011;35253;34.688;33.040;2022-07-29T04:12:52;6.45;;;3.25;;
49376;SDS011;35253;34.688;33.040;2022-07-29T04:15:18;7.65;;;3.67;;
49376;SDS011;35253;34.688;33.040;2022-07-29T04:17:44;11.93;;;3.72;;
49376;SDS011;35253;34.688;33.040;2022-07-29T04:20:09;8.52;;;3.53;;
49376;SDS011;35253;34.688;33.040;2022-07-29T04:22:38;11.25;;;5.28;;
49376;SDS011;35253;34.688;33.040;2022-07-29T04:25:04;8.60;;;4.55;;
49376;SDS011;35253;34.688;33.040;2022-07-29T04:27:30;17.63;;;5.60;;
49376;SDS011;35253;34.688;33.040;2022-07-29T04:29:56;12.32;;;5.20;;
49376;SDS011;35253;34.688;33.040;2022-07-29T04:32:22;15.38;;;6.05;;
49376;SDS011;35253;34.688;33.040;2022-07-29T04:34:48;18.83;;;6.82;;
49376;SDS011;35253;34.688;33.040;2022-07-29T04:37:14;13.82;;;5.43;;
49376;SDS011;35253;34.688;33.040;2022-07-29T04:39:39;9.70;;;4.65;;
49376;SDS011;35253;34.688;33.040;2022-07-29T04:42:05;9.93;;;5.13;;
49376;SDS011;35253;34.688;33.040;2022-07-29T04:44:31;11.20;;;5.15;;
49376;SDS011;35253;34.688;33.040;2022-07-29T04:46:56;9.30;;;4.18;;
49376;SDS011;35253;34.688;33.040;2022-07-29T04:49:22;8.02;;;4.60;;
49376;SDS011;35253;34.688;33.040;2022-07-29T04:51:48;9.88;;;6.28;;
49376;SDS011;35253;34.688;33.040;2022-07-29T04:54:14;9.88;;;4.90;;
49376;SDS011;35253;34.688;33.040;2022-07-29T04:56:39;10.93;;;5.43;;
49376;SDS011;35253;34.688;33.040;2022-07-29T04:59:06;10.50;;;4.82;;
49376;SDS011;35253;34.688;33.040;2022-07-29T05:01:32;6.07;;;5.47;;
49376;SDS011;35253;34.688;33.040;2022-07-29T05:03:58;8.70;;;4.57;;
49376;SDS011;35253;34.688;33.040;2022-07-29T05:06:24;13.30;;;5.03;;
49376;SDS011;35253;34.688;33.040;2022-07-29T05:08:49;11.27;;;5.38;;
49376;SDS011;35253;34.688;33.040;2022-07-29T05:11:15;9.45;;;4.07;;
49376;SDS011;35253;34.688;33.040;2022-07-29T05:13:41;12.88;;;4.35;;
49376;SDS011;35253;34.688;33.040;2022-07-29T05:16:07;7.93;;;4.10;;
49376;SDS011;35253;34.688;33.040;2022-07-29T05:18:33;8.30;;;4.55;;
49376;SDS011;35253;34.688;33.040;2022-07-29T05:20:59;12.88;;;5.25;;
49376;SDS011;35253;34.688;33.040;2022-07-29T05:23:24;10.40;;;5.68;;
49376;SDS011;35253;34.688;33.040;2022-07-29T05:25:50;12.57;;;5.15;;
49376;SDS011;35253;34.688;33.040;2022-07-29T05:28:16;6.53;;;5.10;;
49376;SDS011;35253;34.688;33.040;2022-07-29T05:30:42;11.80;;;5.22;;
49376;SDS011;35253;34.688;33.040;2022-07-29T05:33:09;11.93;;;5.10;;
49376;SDS011;35253;34.688;33.040;2022-07-29T05:35:35;9.45;;;3.92;;
49376;SDS011;35253;34.688;33.040;2022-07-29T05:38:02;8.70;;;4.38;;
49376;SDS011;35253;34.688;33.040;2022-07-29T05:40:28;9.98;;;4.53;;
49376;SDS011;35253;34.688;33.040;2022-07-29T05:42:54;7.22;;;4.03;;
49376;SDS011;35253;34.688;33.040;2022-07-29T05:45:20;11.10;;;4.10;;
49376;SDS011;35253;34.688;33.040;2022-07-29T05:47:45;10.40;;;3.83;;
49376;SDS011;35253;34.688;33.040;2022-07-29T05:50:12;8.43;;;4.82;;
49376;SDS011;35253;34.688;33.040;2022-07-29T05:52:38;8.65;;;3.22;;
49376;SDS011;35253;34.688;33.040;2022-07-29T05:55:04;5.38;;;3.58;;
49376;SDS011;35253;34.688;33.040;2022-07-29T05:57:30;10.98;;;3.75;;
49376;SDS011;35253;34.688;33.040;2022-07-29T05:59:56;9.95;;;3.63;;
49376;SDS011;35253;34.688;33.040;2022-07-29T06:02:22;7.93;;;4.00;;
49376;SDS011;35253;34.688;33.040;2022-07-29T06:04:47;9.35;;;4.28;;
49376;SDS011;35253;34.688;33.040;2022-07-29T06:07:14;8.18;;;4.18;;
49376;SDS011;35253;34.688;33.040;2022-07-29T06:09:41;7.38;;;4.00;;
49376;SDS011;35253;34.688;33.040;2022-07-29T06:12:07;20.27;;;4.53;;
49376;SDS011;35253;34.688;33.040;2022-07-29T06:14:34;8.02;;;3.53;;
49376;SDS011;35253;34.688;33.040;2022-07-29T06:17:00;5.03;;;3.28;;
49376;SDS011;35253;34.688;33.040;2022-07-29T06:19:26;10.75;;;4.65;;
49376;SDS011;35253;34.688;33.040;2022-07-29T06:21:52;5.43;;;3.58;;
49376;SDS011;35253;34.688;33.040;2022-07-29T06:24:17;7.05;;;4.32;;
49376;SDS011;35253;34.688;33.040;2022-07-29T06:26:43;9.02;;;3.50;;
49376;SDS011;35253;34.688;33.040;2022-07-29T06:29:09;7.30;;;3.78;;
49376;SDS011;35253;34.688;33.040;2022-07-29T06:31:35;6.05;;;3.58;;
49376;SDS011;35253;34.688;33.040;2022-07-29T06:34:01;9.85;;;3.75;;
49376;SDS011;35253;34.688;33.040;2022-07-29T06:36:27;3.05;;;2.85;;
49376;SDS011;35253;34.688;33.040;2022-07-29T06:38:53;8.50;;;4.10;;
49376;SDS011;35253;34.688;33.040;2022-07-29T06:41:19;7.22;;;3.33;;
49376;SDS011;35253;34.688;33.040;2022-07-29T06:43:44;9.45;;;3.58;;
49376;SDS011;35253;34.688;33.040;2022-07-29T06:46:14;6.88;;;3.55;;
49376;SDS011;35253;34.688;33.040;2022-07-29T06:48:42;8.10;;;3.83;;
49376;SDS011;35253;34.688;33.040;2022-07-29T06:51:09;10.35;;;4.07;;
49376;SDS011;35253;34.688;33.040;2022-07-29T06:53:36;5.38;;;4.15;;
49376;SDS011;35253;34.688;33.040;2022-07-29T06:56:03;4.47;;;3.80;;
49376;SDS011;35253;34.688;33.040;2022-07-29T06:58:30;8.13;;;4.45;;
49376;SDS011;35253;34.688;33.040;2022-07-29T07:00:57;11.80;;;4.32;;
49376;SDS011;35253;34.688;33.040;2022-07-29T07:03:25;5.68;;;3.80;;
49376;SDS011;35253;34.688;33.040;2022-07-29T07:05:52;4.75;;;3.78;;
49376;SDS011;35253;34.688;33.040;2022-07-29T07:08:19;4.65;;;3.13;;
49376;SDS011;35253;34.688;33.040;2022-07-29T07:10:45;8.10;;;4.70;;
49376;SDS011;35253;34.688;33.040;2022-07-29T07:13:11;4.32;;;3.85;;
49376;SDS011;35253;34.688;33.040;2022-07-29T07:15:37;5.07;;;3.00;;
49376;SDS011;35253;34.688;33.040;2022-07-29T07:18:04;7.15;;;4.05;;
49376;SDS011;35253;34.688;33.040;2022-07-29T07:20:33;6.03;;;3.63;;
49376;SDS011;35253;34.688;33.040;2022-07-29T07:23:00;5.70;;;3.35;;
49376;SDS011;35253;34.688;33.040;2022-07-29T07:25:26;5.60;;;2.78;;
49376;SDS011;35253;34.688;33.040;2022-07-29T07:27:51;4.95;;;2.97;;
49376;SDS011;35253;34.688;33.040;2022-07-29T07:30:17;6.68;;;3.35;;
49376;SDS011;35253;34.688;33.040;2022-07-29T07:32:43;11.05;;;3.75;;
49376;SDS011;35253;34.688;33.040;2022-07-29T07:35:09;3.42;;;3.13;;
49376;SDS011;35253;34.688;33.040;2022-07-29T07:37:35;5.63;;;3.40;;
49376;SDS011;35253;34.688;33.040;2022-07-29T07:40:01;3.90;;;3.28;;
49376;SDS011;35253;34.688;33.040;2022-07-29T07:42:28;3.78;;;3.20;;
49376;SDS011;35253;34.688;33.040;2022-07-29T07:44:54;9.90;;;3.85;;
49376;SDS011;35253;34.688;33.040;2022-07-29T07:47:19;5.07;;;3.30;;
49376;SDS011;35253;34.688;33.040;2022-07-29T07:49:46;10.45;;;4.20;;
49376;SDS011;35253;34.688;33.040;2022-07-29T07:52:12;7.65;;;4.47;;
49376;SDS011;35253;34.688;33.040;2022-07-29T07:54:39;10.75;;;3.50;;
49376;SDS011;35253;34.688;33.040;2022-07-29T07:57:04;7.15;;;3.88;;
49376;SDS011;35253;34.688;33.040;2022-07-29T07:59:30;7.43;;;4.18;;
49376;SDS011;35253;34.688;33.040;2022-07-29T08:01:56;5.55;;;3.67;;
49376;SDS011;35253;34.688;33.040;2022-07-29T08:04:21;9.38;;;3.70;;
49376;SDS011;35253;34.688;33.040;2022-07-29T08:06:47;11.73;;;7.50;;
49376;SDS011;35253;34.688;33.040;2022-07-29T08:09:14;6.05;;;4.90;;
49376;SDS011;35253;34.688;33.040;2022-07-29T08:11:40;14.20;;;4.82;;
49376;SDS011;35253;34.688;33.040;2022-07-29T08:14:06;7.53;;;4.28;;
49376;SDS011;35253;34.688;33.040;2022-07-29T08:16:32;9.25;;;4.45;;
49376;SDS011;35253;34.688;33.040;2022-07-29T08:18:57;10.15;;;6.18;;
49376;SDS011;35253;34.688;33.040;2022-07-29T08:21:23;6.32;;;4.55;;
49376;SDS011;35253;34.688;33.040;2022-07-29T08:23:50;8.45;;;4.90;;
49376;SDS011;35253;34.688;33.040;2022-07-29T08:26:20;7.38;;;4.38;;
49376;SDS011;35253;34.688;33.040;2022-07-29T08:31:15;9.43;;;4.32;;
49376;SDS011;35253;34.688;33.040;2022-07-29T08:33:42;7.25;;;4.90;;
49376;SDS011;35253;34.688;33.040;2022-07-29T08:36:08;9.02;;;5.53;;
49376;SDS011;35253;34.688;33.040;2022-07-29T08:38:34;13.38;;;6.18;;
49376;SDS011;35253;34.688;33.040;2022-07-29T08:41:00;10.43;;;5.07;;
49376;SDS011;35253;34.688;33.040;2022-07-29T08:43:27;6.07;;;4.28;;
49376;SDS011;35253;34.688;33.040;2022-07-29T08:45:53;7.95;;;5.15;;
49376;SDS011;35253;34.688;33.040;2022-07-29T08:48:21;5.13;;;3.92;;
49376;SDS011;35253;34.688;33.040;2022-07-29T08:50:49;10.68;;;3.75;;
49376;SDS011;35253;34.688;33.040;2022-07-29T08:53:21;6.35;;;5.20;;
49376;SDS011;35253;34.688;33.040;2022-07-29T08:55:49;9.00;;;6.97;;
49376;SDS011;35253;34.688;33.040;2022-07-29T08:58:15;6.47;;;4.28;;
49376;SDS011;35253;34.688;33.040;2022-07-29T09:00:43;5.90;;;3.70;;
49376;SDS011;35253;34.688;33.040;2022-07-29T09:03:14;6.47;;;3.75;;
49376;SDS011;35253;34.688;33.040;2022-07-29T09:05:42;6.15;;;3.10;;
49376;SDS011;35253;34.688;33.040;2022-07-29T09:08:10;15.40;;;11.77;;
49376;SDS011;35253;34.688;33.040;2022-07-29T09:10:36;3.42;;;2.90;;
49376;SDS011;35253;34.688;33.040;2022-07-29T09:13:02;5.05;;;2.70;;
49376;SDS011;35253;34.688;33.040;2022-07-29T09:15:28;7.72;;;3.30;;
49376;SDS011;35253;34.688;33.040;2022-07-29T09:17:54;6.22;;;5.10;;
49376;SDS011;35253;34.688;33.040;2022-07-29T09:20:22;10.70;;;4.95;;
49376;SDS011;35253;34.688;33.040;2022-07-29T09:22:48;4.00;;;3.42;;
49376;SDS011;35253;34.688;33.040;2022-07-29T09:25:15;7.13;;;3.72;;
49376;SDS011;35253;34.688;33.040;2022-07-29T09:28:05;4.80;;;3.55;;
49376;SDS011;35253;34.688;33.040;2022-07-29T09:30:32;8.50;;;4.97;;
49376;SDS011;35253;34.688;33.040;2022-07-29T09:32:59;6.78;;;3.65;;
49376;SDS011;35253;34.688;33.040;2022-07-29T09:35:27;5.88;;;3.67;;
49376;SDS011;35253;34.688;33.040;2022-07-29T09:37:53;7.75;;;4.13;;
49376;SDS011;35253;34.688;33.040;2022-07-29T09:40:20;7.28;;;4.90;;
49376;SDS011;35253;34.688;33.040;2022-07-29T09:42:53;7.68;;;6.88;;
49376;SDS011;35253;34.688;33.040;2022-07-29T09:47:59;7.38;;;5.88;;
49376;SDS011;35253;34.688;33.040;2022-07-29T09:50:38;3.67;;;3.38;;
49376;SDS011;35253;34.688;33.040;2022-07-29T09:53:05;10.13;;;3.92;;
49376;SDS011;35253;34.688;33.040;2022-07-29T09:55:31;8.20;;;4.25;;
49376;SDS011;35253;34.688;33.040;2022-07-29T09:58:19;7.50;;;5.60;;
49376;SDS011;35253;34.688;33.040;2022-07-29T10:00:46;11.02;;;5.55;;
49376;SDS011;35253;34.688;33.040;2022-07-29T10:03:13;7.07;;;4.88;;
49376;SDS011;35253;34.688;33.040;2022-07-29T10:05:40;8.57;;;5.22;;
49376;SDS011;35253;34.688;33.040;2022-07-29T10:08:07;5.72;;;5.18;;
49376;SDS011;35253;34.688;33.040;2022-07-29T10:10:37;5.90;;;4.40;;
49376;SDS011;35253;34.688;33.040;2022-07-29T10:13:05;5.30;;;4.80;;
49376;SDS011;35253;34.688;33.040;2022-07-29T10:15:33;6.20;;;4.82;;
49376;SDS011;35253;34.688;33.040;2022-07-29T10:18:06;12.05;;;6.22;;
49376;SDS011;35253;34.688;33.040;2022-07-29T10:20:32;6.60;;;4.13;;
49376;SDS011;35253;34.688;33.040;2022-07-29T10:22:59;6.72;;;4.35;;
49376;SDS011;35253;34.688;33.040;2022-07-29T10:25:25;6.80;;;3.47;;
49376;SDS011;35253;34.688;33.040;2022-07-29T10:27:53;5.38;;;3.92;;
49376;SDS011;35253;34.688;33.040;2022-07-29T10:30:20;9.85;;;5.45;;
49376;SDS011;35253;34.688;33.040;2022-07-29T10:32:54;8.52;;;4.45;;
49376;SDS011;35253;34.688;33.040;2022-07-29T10:44:03;7.43;;;4.82;;
49376;SDS011;35253;34.688;33.040;2022-07-29T10:46:38;12.50;;;6.53;;
49376;SDS011;35253;34.688;33.040;2022-07-29T10:54:16;11.38;;;7.18;;
49376;SDS011;35253;34.688;33.040;2022-07-29T10:56:42;18.58;;;7.63;;
49376;SDS011;35253;34.688;33.040;2022-07-29T11:01:46;16.10;;;7.47;;
49376;SDS011;35253;34.688;33.040;2022-07-29T11:04:13;16.75;;;8.02;;
49376;SDS011;35253;34.688;33.040;2022-07-29T11:09:23;7.65;;;5.07;;
49376;SDS011;35253;34.688;33.040;2022-07-29T11:11:49;7.90;;;3.80;;
49376;SDS011;35253;34.688;33.040;2022-07-29T11:14:15;9.50;;;4.32;;
49376;SDS011;35253;34.688;33.040;2022-07-29T11:16:58;7.40;;;3.83;;
49376;SDS011;35253;34.688;33.040;2022-07-29T11:19:27;6.38;;;3.90;;
49376;SDS011;35253;34.688;33.040;2022-07-29T11:21:53;11.70;;;5.93;;
49376;SDS011;35253;34.688;33.040;2022-07-29T11:29:32;8.82;;;5.50;;
49376;SDS011;35253;34.688;33.040;2022-07-29T11:32:08;3.92;;;3.58;;
49376;SDS011;35253;34.688;33.040;2022-07-29T11:34:39;16.77;;;9.85;;
49376;SDS011;35253;34.688;33.040;2022-07-29T11:39:34;6.68;;;2.95;;
49376;SDS011;35253;34.688;33.040;2022-07-29T11:47:46;22.95;;;4.85;;
49376;SDS011;35253;34.688;33.040;2022-07-29T11:50:17;8.75;;;4.75;;
49376;SDS011;35253;34.688;33.040;2022-07-29T11:52:52;8.02;;;5.57;;
49376;SDS011;35253;34.688;33.040;2022-07-29T11:55:19;12.48;;;5.80;;
49376;SDS011;35253;34.688;33.040;2022-07-29T11:57:56;8.40;;;4.68;;
49376;SDS011;35253;34.688;33.040;2022-07-29T12:00:36;5.75;;;4.40;;
49376;SDS011;35253;34.688;33.040;2022-07-29T12:03:04;5.32;;;4.82;;
49376;SDS011;35253;34.688;33.040;2022-07-29T12:10:44;10.02;;;4.72;;
49376;SDS011;35253;34.688;33.040;2022-07-29T12:13:11;6.68;;;5.30;;
49376;SDS011;35253;34.688;33.040;2022-07-29T12:15:37;6.63;;;5.20;;
49376;SDS011;35253;34.688;33.040;2022-07-29T12:18:16;8.93;;;5.15;;
49376;SDS011;35253;34.688;33.040;2022-07-29T12:20:43;9.70;;;6.65;;
49376;SDS011;35253;34.688;33.040;2022-07-29T12:23:10;13.40;;;6.15;;
49376;SDS011;35253;34.688;33.040;2022-07-29T12:25:40;9.60;;;6.20;;
49376;SDS011;35253;34.688;33.040;2022-07-29T12:28:08;9.25;;;6.28;;
49376;SDS011;35253;34.688;33.040;2022-07-29T12:30:42;14.60;;;7.57;;
49376;SDS011;35253;34.688;33.040;2022-07-29T12:33:10;9.30;;;6.85;;
49376;SDS011;35253;34.688;33.040;2022-07-29T12:35:51;11.90;;;8.40;;
49376;SDS011;35253;34.688;33.040;2022-07-29T12:38:40;8.70;;;7.68;;
49376;SDS011;35253;34.688;33.040;2022-07-29T12:41:06;12.32;;;7.97;;
49376;SDS011;35253;34.688;33.040;2022-07-29T12:43:35;8.38;;;7.70;;
49376;SDS011;35253;34.688;33.040;2022-07-29T12:46:11;9.73;;;8.68;;
49376;SDS011;35253;34.688;33.040;2022-07-29T12:48:39;8.60;;;7.65;;
49376;SDS011;35253;34.688;33.040;2022-07-29T12:51:08;12.95;;;9.23;;
49376;SDS011;35253;34.688;33.040;2022-07-29T12:53:36;9.40;;;7.63;;
49376;SDS011;35253;34.688;33.040;2022-07-29T12:56:03;12.82;;;8.57;;
49376;SDS011;35253;34.688;33.040;2022-07-29T12:58:31;15.02;;;8.48;;
49376;SDS011;35253;34.688;33.040;2022-07-29T13:01:03;12.98;;;9.27;;
49376;SDS011;35253;34.688;33.040;2022-07-29T13:03:46;8.55;;;7.63;;
49376;SDS011;35253;34.688;33.040;2022-07-29T13:08:59;12.57;;;6.97;;
49376;SDS011;35253;34.688;33.040;2022-07-29T13:11:30;8.55;;;7.75;;
49376;SDS011;35253;34.688;33.040;2022-07-29T13:13:57;10.27;;;7.70;;
49376;SDS011;35253;34.688;33.040;2022-07-29T13:16:23;7.82;;;7.13;;
49376;SDS011;35253;34.688;33.040;2022-07-29T13:18:54;10.27;;;7.15;;
49376;SDS011;35253;34.688;33.040;2022-07-29T13:21:31;12.35;;;6.88;;
49376;SDS011;35253;34.688;33.040;2022-07-29T13:23:57;12.35;;;7.47;;
49376;SDS011;35253;34.688;33.040;2022-07-29T13:26:23;9.00;;;6.68;;
49376;SDS011;35253;34.688;33.040;2022-07-29T13:28:49;7.30;;;6.03;;
49376;SDS011;35253;34.688;33.040;2022-07-29T13:31:15;11.50;;;7.55;;
49376;SDS011;35253;34.688;33.040;2022-07-29T13:33:41;7.60;;;6.80;;
49376;SDS011;35253;34.688;33.040;2022-07-29T13:36:06;8.13;;;6.65;;
49376;SDS011;35253;34.688;33.040;2022-07-29T13:38:32;8.60;;;7.28;;
49376;SDS011;35253;34.688;33.040;2022-07-29T13:40:58;10.63;;;7.45;;
49376;SDS011;35253;34.688;33.040;2022-07-29T13:43:25;12.80;;;11.15;;
49376;SDS011;35253;34.688;33.040;2022-07-29T13:45:51;11.88;;;8.90;;
49376;SDS011;35253;34.688;33.040;2022-07-29T13:48:17;10.20;;;8.98;;
49376;SDS011;35253;34.688;33.040;2022-07-29T13:50:42;10.88;;;7.22;;
49376;SDS011;35253;34.688;33.040;2022-07-29T13:53:08;9.68;;;6.43;;
49376;SDS011;35253;34.688;33.040;2022-07-29T13:55:34;8.73;;;6.10;;
49376;SDS011;35253;34.688;33.040;2022-07-29T13:57:59;7.90;;;6.20;;
49376;SDS011;35253;34.688;33.040;2022-07-29T14:00:25;15.95;;;6.82;;
49376;SDS011;35253;34.688;33.040;2022-07-29T14:02:51;6.25;;;5.32;;
49376;SDS011;35253;34.688;33.040;2022-07-29T14:05:17;17.75;;;7.90;;
49376;SDS011;35253;34.688;33.040;2022-07-29T14:07:43;7.32;;;5.15;;
49376;SDS011;35253;34.688;33.040;2022-07-29T14:10:09;7.82;;;4.95;;
49376;SDS011;35253;34.688;33.040;2022-07-29T14:12:35;10.75;;;6.47;;
49376;SDS011;35253;34.688;33.040;2022-07-29T14:15:00;10.68;;;7.57;;
49376;SDS011;35253;34.688;33.040;2022-07-29T14:17:26;8.02;;;6.13;;
49376;SDS011;35253;34.688;33.040;2022-07-29T14:19:52;18.02;;;5.70;;
49376;SDS011;35253;34.688;33.040;2022-07-29T14:22:17;8.02;;;6.18;;
49376;SDS011;35253;34.688;33.040;2022-07-29T14:24:44;9.07;;;7.45;;
49376;SDS011;35253;34.688;33.040;2022-07-29T14:27:10;11.73;;;6.03;;
49376;SDS011;35253;34.688;33.040;2022-07-29T14:29:36;11.52;;;6.78;;
49376;SDS011;35253;34.688;33.040;2022-07-29T14:32:02;9.48;;;5.72;;
49376;SDS011;35253;34.688;33.040;2022-07-29T14:34:29;7.88;;;5.13;;
49376;SDS011;35253;34.688;33.040;2022-07-29T14:36:54;8.38;;;5.38;;
49376;SDS011;35253;34.688;33.040;2022-07-29T14:39:23;14.95;;;7.45;;
49376;SDS011;35253;34.688;33.040;2022-07-29T14:41:49;4.83;;;4.10;;
49376;SDS011;35253;34.688;33.040;2022-07-29T14:44:16;8.18;;;5.40;;
49376;SDS011;35253;34.688;33.040;2022-07-29T14:46:43;10.35;;;4.07;;
49376;SDS011;35253;34.688;33.040;2022-07-29T14:49:09;17.98;;;8.65;;
49376;SDS011;35253;34.688;33.040;2022-07-29T14:51:34;9.45;;;6.15;;
49376;SDS011;35253;34.688;33.040;2022-07-29T14:54:00;13.73;;;4.60;;
49376;SDS011;35253;34.688;33.040;2022-07-29T14:56:26;8.13;;;5.07;;
49376;SDS011;35253;34.688;33.040;2022-07-29T14:58:54;10.93;;;7.18;;
49376;SDS011;35253;34.688;33.040;2022-07-29T15:01:21;13.77;;;5.57;;
49376;SDS011;35253;34.688;33.040;2022-07-29T15:03:46;7.15;;;5.05;;
49376;SDS011;35253;34.688;33.040;2022-07-29T15:06:12;6.68;;;5.70;;
49376;SDS011;35253;34.688;33.040;2022-07-29T15:08:39;11.20;;;7.13;;
49376;SDS011;35253;34.688;33.040;2022-07-29T15:11:05;7.60;;;5.30;;
49376;SDS011;35253;34.688;33.040;2022-07-29T15:13:30;8.93;;;6.72;;
49376;SDS011;35253;34.688;33.040;2022-07-29T15:15:56;9.73;;;5.13;;
49376;SDS011;35253;34.688;33.040;2022-07-29T15:18:22;10.57;;;6.03;;
49376;SDS011;35253;34.688;33.040;2022-07-29T15:20:47;9.18;;;6.07;;
49376;SDS011;35253;34.688;33.040;2022-07-29T15:23:13;9.25;;;5.70;;
49376;SDS011;35253;34.688;33.040;2022-07-29T15:25:39;9.98;;;6.47;;
49376;SDS011;35253;34.688;33.040;2022-07-29T15:28:05;8.63;;;5.30;;
49376;SDS011;35253;34.688;33.040;2022-07-29T15:30:34;19.27;;;7.40;;